sensor_id;sensor_type;location;lat;lon;timestamp;P1;durP1;ratioP1;P2;durP2;ratioP2
19343;SDS011;9808;52.402;16.678;2023-10-08T00:01:03;12.93;;;3.63;;
19343;SDS011;9808;52.402;16.678;2023-10-08T00:03:34;13.93;;;3.37;;
19343;SDS011;9808;52.402;16.678;2023-10-08T00:06:03;9.43;;;2.80;;
19343;SDS011;9808;52.402;16.678;2023-10-08T00:08:33;13.93;;;3.43;;
19343;SDS011;9808;52.402;16.678;2023-10-08T00:11:00;12.97;;;3.27;;
19343;SDS011;9808;52.402;16.678;2023-10-08T00:13:37;9.97;;;3.20;;
19343;SDS011;9808;52.402;16.678;2023-10-08T00:16:08;17.17;;;4.10;;
19343;SDS011;9808;52.402;16.678;2023-10-08T00:18:37;14.33;;;3.70;;
19343;SDS011;9808;52.402;16.678;2023-10-08T00:21:04;13.93;;;3.67;;
19343;SDS011;9808;52.402;16.678;2023-10-08T00:23:43;19.00;;;4.00;;
19343;SDS011;9808;52.402;16.678;2023-10-08T00:26:27;15.07;;;3.90;;
19343;SDS011;9808;52.402;16.678;2023-10-08T00:28:57;11.80;;;3.70;;
19343;SDS011;9808;52.402;16.678;2023-10-08T00:31:33;13.90;;;3.67;;
19343;SDS011;9808;52.402;16.678;2023-10-08T00:34:04;18.00;;;4.50;;
19343;SDS011;9808;52.402;16.678;2023-10-08T00:36:32;12.90;;;4.20;;
19343;SDS011;9808;52.402;16.678;2023-10-08T00:39:02;12.50;;;4.20;;
19343;SDS011;9808;52.402;16.678;2023-10-08T00:41:34;12.17;;;4.13;;
19343;SDS011;9808;52.402;16.678;2023-10-08T00:44:07;13.33;;;3.73;;
19343;SDS011;9808;52.402;16.678;2023-10-08T00:46:34;13.70;;;4.03;;
19343;SDS011;9808;52.402;16.678;2023-10-08T00:49:28;13.57;;;4.20;;
19343;SDS011;9808;52.402;16.678;2023-10-08T00:52:08;14.47;;;4.37;;
19343;SDS011;9808;52.402;16.678;2023-10-08T00:54:36;13.47;;;4.33;;
19343;SDS011;9808;52.402;16.678;2023-10-08T00:57:22;15.80;;;4.13;;
19343;SDS011;9808;52.402;16.678;2023-10-08T00:59:50;22.90;;;4.63;;
19343;SDS011;9808;52.402;16.678;2023-10-08T01:02:21;17.17;;;4.40;;
19343;SDS011;9808;52.402;16.678;2023-10-08T01:04:55;16.93;;;4.50;;
19343;SDS011;9808;52.402;16.678;2023-10-08T01:07:23;20.20;;;4.80;;
19343;SDS011;9808;52.402;16.678;2023-10-08T01:09:50;13.77;;;4.10;;
19343;SDS011;9808;52.402;16.678;2023-10-08T01:12:23;14.20;;;4.53;;
19343;SDS011;9808;52.402;16.678;2023-10-08T01:15:02;16.03;;;5.10;;
19343;SDS011;9808;52.402;16.678;2023-10-08T01:17:50;15.47;;;5.27;;
19343;SDS011;9808;52.402;16.678;2023-10-08T01:20:24;14.53;;;4.93;;
19343;SDS011;9808;52.402;16.678;2023-10-08T01:23:10;22.93;;;6.50;;
19343;SDS011;9808;52.402;16.678;2023-10-08T01:25:40;15.03;;;4.90;;
19343;SDS011;9808;52.402;16.678;2023-10-08T01:28:09;12.83;;;5.00;;
19343;SDS011;9808;52.402;16.678;2023-10-08T01:30:41;16.57;;;4.73;;
19343;SDS011;9808;52.402;16.678;2023-10-08T01:33:13;19.43;;;5.07;;
19343;SDS011;9808;52.402;16.678;2023-10-08T01:35:42;13.57;;;4.57;;
19343;SDS011;9808;52.402;16.678;2023-10-08T01:38:10;13.40;;;4.27;;
19343;SDS011;9808;52.402;16.678;2023-10-08T01:40:41;16.87;;;5.43;;
19343;SDS011;9808;52.402;16.678;2023-10-08T01:43:08;18.57;;;5.33;;
19343;SDS011;9808;52.402;16.678;2023-10-08T01:45:37;17.77;;;4.40;;
19343;SDS011;9808;52.402;16.678;2023-10-08T01:48:07;17.07;;;4.87;;
19343;SDS011;9808;52.402;16.678;2023-10-08T01:50:38;14.43;;;4.07;;
19343;SDS011;9808;52.402;16.678;2023-10-08T01:53:05;17.87;;;4.30;;
19343;SDS011;9808;52.402;16.678;2023-10-08T01:55:36;16.47;;;4.43;;
19343;SDS011;9808;52.402;16.678;2023-10-08T01:58:16;11.03;;;4.07;;
19343;SDS011;9808;52.402;16.678;2023-10-08T02:00:47;11.57;;;3.90;;
19343;SDS011;9808;52.402;16.678;2023-10-08T02:03:14;9.53;;;3.60;;
19343;SDS011;9808;52.402;16.678;2023-10-08T02:05:42;9.47;;;3.73;;
19343;SDS011;9808;52.402;16.678;2023-10-08T02:08:10;15.07;;;3.73;;
19343;SDS011;9808;52.402;16.678;2023-10-08T02:10:39;18.07;;;4.20;;
19343;SDS011;9808;52.402;16.678;2023-10-08T02:13:07;12.23;;;3.80;;
19343;SDS011;9808;52.402;16.678;2023-10-08T02:15:35;13.10;;;4.00;;
19343;SDS011;9808;52.402;16.678;2023-10-08T02:18:03;11.60;;;3.63;;
19343;SDS011;9808;52.402;16.678;2023-10-08T02:20:30;12.10;;;3.93;;
19343;SDS011;9808;52.402;16.678;2023-10-08T02:22:59;13.87;;;3.43;;
19343;SDS011;9808;52.402;16.678;2023-10-08T02:25:26;14.50;;;4.03;;
19343;SDS011;9808;52.402;16.678;2023-10-08T02:27:54;10.40;;;3.70;;
19343;SDS011;9808;52.402;16.678;2023-10-08T02:30:21;11.40;;;4.20;;
19343;SDS011;9808;52.402;16.678;2023-10-08T02:32:48;16.13;;;3.93;;
19343;SDS011;9808;52.402;16.678;2023-10-08T02:35:16;11.07;;;4.00;;
19343;SDS011;9808;52.402;16.678;2023-10-08T02:37:43;12.57;;;4.70;;
19343;SDS011;9808;52.402;16.678;2023-10-08T02:40:12;14.20;;;4.13;;
19343;SDS011;9808;52.402;16.678;2023-10-08T02:42:43;14.87;;;4.13;;
19343;SDS011;9808;52.402;16.678;2023-10-08T02:45:11;13.70;;;4.20;;
19343;SDS011;9808;52.402;16.678;2023-10-08T02:47:40;14.40;;;4.10;;
19343;SDS011;9808;52.402;16.678;2023-10-08T02:50:11;21.47;;;4.17;;
19343;SDS011;9808;52.402;16.678;2023-10-08T02:52:43;13.17;;;4.27;;
19343;SDS011;9808;52.402;16.678;2023-10-08T02:55:13;15.70;;;3.97;;
19343;SDS011;9808;52.402;16.678;2023-10-08T02:58:06;11.53;;;4.00;;
19343;SDS011;9808;52.402;16.678;2023-10-08T03:00:37;13.17;;;4.43;;
19343;SDS011;9808;52.402;16.678;2023-10-08T03:03:07;13.60;;;4.17;;
19343;SDS011;9808;52.402;16.678;2023-10-08T03:05:45;12.47;;;3.90;;
19343;SDS011;9808;52.402;16.678;2023-10-08T03:08:13;9.83;;;3.93;;
19343;SDS011;9808;52.402;16.678;2023-10-08T03:10:48;15.53;;;4.00;;
19343;SDS011;9808;52.402;16.678;2023-10-08T03:13:16;13.03;;;3.40;;
19343;SDS011;9808;52.402;16.678;2023-10-08T03:15:45;9.87;;;3.77;;
19343;SDS011;9808;52.402;16.678;2023-10-08T03:18:24;10.13;;;3.60;;
19343;SDS011;9808;52.402;16.678;2023-10-08T03:20:51;9.13;;;3.43;;
19343;SDS011;9808;52.402;16.678;2023-10-08T03:23:19;12.37;;;3.37;;
19343;SDS011;9808;52.402;16.678;2023-10-08T03:25:50;7.53;;;3.10;;
19343;SDS011;9808;52.402;16.678;2023-10-08T03:28:23;9.30;;;3.17;;
19343;SDS011;9808;52.402;16.678;2023-10-08T03:30:54;9.97;;;2.83;;
19343;SDS011;9808;52.402;16.678;2023-10-08T03:33:35;8.70;;;3.10;;
19343;SDS011;9808;52.402;16.678;2023-10-08T03:36:04;17.00;;;3.67;;
19343;SDS011;9808;52.402;16.678;2023-10-08T03:38:47;9.57;;;2.93;;
19343;SDS011;9808;52.402;16.678;2023-10-08T03:41:22;7.70;;;2.97;;
19343;SDS011;9808;52.402;16.678;2023-10-08T03:43:56;11.43;;;2.87;;
19343;SDS011;9808;52.402;16.678;2023-10-08T03:46:39;13.57;;;2.67;;
19343;SDS011;9808;52.402;16.678;2023-10-08T03:49:12;9.20;;;2.30;;
19343;SDS011;9808;52.402;16.678;2023-10-08T03:51:49;10.97;;;2.80;;
19343;SDS011;9808;52.402;16.678;2023-10-08T03:54:20;5.80;;;2.07;;
19343;SDS011;9808;52.402;16.678;2023-10-08T03:57:10;9.13;;;3.13;;
19343;SDS011;9808;52.402;16.678;2023-10-08T03:59:45;7.57;;;2.57;;
19343;SDS011;9808;52.402;16.678;2023-10-08T04:02:14;5.83;;;2.30;;
19343;SDS011;9808;52.402;16.678;2023-10-08T04:04:58;8.13;;;2.60;;
19343;SDS011;9808;52.402;16.678;2023-10-08T04:07:26;10.63;;;2.60;;
19343;SDS011;9808;52.402;16.678;2023-10-08T04:10:11;8.93;;;2.70;;
19343;SDS011;9808;52.402;16.678;2023-10-08T04:12:38;8.40;;;2.30;;
19343;SDS011;9808;52.402;16.678;2023-10-08T04:15:17;5.27;;;1.77;;
19343;SDS011;9808;52.402;16.678;2023-10-08T04:17:44;5.60;;;1.93;;
19343;SDS011;9808;52.402;16.678;2023-10-08T04:20:17;8.10;;;1.77;;
19343;SDS011;9808;52.402;16.678;2023-10-08T04:23:00;4.17;;;1.40;;
19343;SDS011;9808;52.402;16.678;2023-10-08T04:25:28;6.03;;;1.80;;
19343;SDS011;9808;52.402;16.678;2023-10-08T04:27:57;6.00;;;2.00;;
19343;SDS011;9808;52.402;16.678;2023-10-08T04:30:27;5.70;;;2.00;;
19343;SDS011;9808;52.402;16.678;2023-10-08T04:33:00;8.73;;;1.97;;
19343;SDS011;9808;52.402;16.678;2023-10-08T04:35:33;7.07;;;1.60;;
19343;SDS011;9808;52.402;16.678;2023-10-08T04:38:15;5.37;;;1.80;;
19343;SDS011;9808;52.402;16.678;2023-10-08T04:40:46;12.43;;;1.70;;
19343;SDS011;9808;52.402;16.678;2023-10-08T04:43:21;9.33;;;1.77;;
19343;SDS011;9808;52.402;16.678;2023-10-08T04:45:52;6.77;;;1.53;;
19343;SDS011;9808;52.402;16.678;2023-10-08T04:48:19;7.13;;;1.50;;
19343;SDS011;9808;52.402;16.678;2023-10-08T04:50:47;4.87;;;1.70;;
19343;SDS011;9808;52.402;16.678;2023-10-08T04:53:25;3.53;;;1.43;;
19343;SDS011;9808;52.402;16.678;2023-10-08T04:55:59;5.90;;;1.40;;
19343;SDS011;9808;52.402;16.678;2023-10-08T04:58:33;6.00;;;1.43;;
19343;SDS011;9808;52.402;16.678;2023-10-08T05:01:03;4.27;;;1.50;;
19343;SDS011;9808;52.402;16.678;2023-10-08T05:03:50;3.70;;;1.40;;
19343;SDS011;9808;52.402;16.678;2023-10-08T05:06:28;3.50;;;1.10;;
19343;SDS011;9808;52.402;16.678;2023-10-08T05:09:05;9.03;;;1.57;;
19343;SDS011;9808;52.402;16.678;2023-10-08T05:11:39;7.43;;;1.37;;
19343;SDS011;9808;52.402;16.678;2023-10-08T05:14:23;5.27;;;1.40;;
19343;SDS011;9808;52.402;16.678;2023-10-08T05:16:55;2.80;;;1.30;;
19343;SDS011;9808;52.402;16.678;2023-10-08T05:19:49;3.83;;;1.27;;
19343;SDS011;9808;52.402;16.678;2023-10-08T05:22:42;3.70;;;1.40;;
19343;SDS011;9808;52.402;16.678;2023-10-08T05:25:10;8.60;;;1.50;;
19343;SDS011;9808;52.402;16.678;2023-10-08T05:27:41;4.50;;;1.57;;
19343;SDS011;9808;52.402;16.678;2023-10-08T05:30:15;4.10;;;1.50;;
19343;SDS011;9808;52.402;16.678;2023-10-08T05:32:54;8.53;;;1.80;;
19343;SDS011;9808;52.402;16.678;2023-10-08T05:35:41;2.87;;;1.13;;
19343;SDS011;9808;52.402;16.678;2023-10-08T05:38:13;3.90;;;1.50;;
19343;SDS011;9808;52.402;16.678;2023-10-08T05:40:57;3.13;;;1.03;;
19343;SDS011;9808;52.402;16.678;2023-10-08T05:46:11;7.13;;;1.50;;
19343;SDS011;9808;52.402;16.678;2023-10-08T05:51:34;4.37;;;1.43;;
19343;SDS011;9808;52.402;16.678;2023-10-08T05:56:53;4.33;;;1.10;;
19343;SDS011;9808;52.402;16.678;2023-10-08T05:59:33;7.03;;;1.10;;
19343;SDS011;9808;52.402;16.678;2023-10-08T06:02:29;2.53;;;1.10;;
19343;SDS011;9808;52.402;16.678;2023-10-08T06:05:01;4.77;;;1.10;;
19343;SDS011;9808;52.402;16.678;2023-10-08T06:10:15;7.53;;;1.10;;
19343;SDS011;9808;52.402;16.678;2023-10-08T06:15:39;6.03;;;1.40;;
19343;SDS011;9808;52.402;16.678;2023-10-08T06:18:29;4.13;;;1.23;;
19343;SDS011;9808;52.402;16.678;2023-10-08T06:23:27;4.77;;;1.27;;
19343;SDS011;9808;52.402;16.678;2023-10-08T06:25:55;4.77;;;1.30;;
19343;SDS011;9808;52.402;16.678;2023-10-08T06:28:26;5.67;;;1.00;;
19343;SDS011;9808;52.402;16.678;2023-10-08T06:30:53;3.30;;;1.20;;
19343;SDS011;9808;52.402;16.678;2023-10-08T06:33:25;9.20;;;1.50;;
19343;SDS011;9808;52.402;16.678;2023-10-08T06:35:57;9.07;;;2.90;;
19343;SDS011;9808;52.402;16.678;2023-10-08T06:41:11;17.50;;;6.50;;
19343;SDS011;9808;52.402;16.678;2023-10-08T06:43:41;11.00;;;3.97;;
19343;SDS011;9808;52.402;16.678;2023-10-08T06:46:13;10.03;;;3.83;;
19343;SDS011;9808;52.402;16.678;2023-10-08T06:48:45;9.13;;;3.00;;
19343;SDS011;9808;52.402;16.678;2023-10-08T06:51:15;7.43;;;3.27;;
19343;SDS011;9808;52.402;16.678;2023-10-08T06:53:46;9.47;;;3.10;;
19343;SDS011;9808;52.402;16.678;2023-10-08T06:56:14;11.63;;;3.83;;
19343;SDS011;9808;52.402;16.678;2023-10-08T06:58:42;9.77;;;4.10;;
19343;SDS011;9808;52.402;16.678;2023-10-08T07:01:16;8.77;;;3.60;;
19343;SDS011;9808;52.402;16.678;2023-10-08T07:03:51;5.97;;;1.90;;
19343;SDS011;9808;52.402;16.678;2023-10-08T07:06:22;5.50;;;2.37;;
19343;SDS011;9808;52.402;16.678;2023-10-08T07:09:00;13.03;;;2.97;;
19343;SDS011;9808;52.402;16.678;2023-10-08T07:11:34;8.27;;;1.40;;
19343;SDS011;9808;52.402;16.678;2023-10-08T07:14:02;6.47;;;2.20;;
19343;SDS011;9808;52.402;16.678;2023-10-08T07:16:31;6.40;;;1.43;;
19343;SDS011;9808;52.402;16.678;2023-10-08T07:18:58;9.10;;;2.20;;
19343;SDS011;9808;52.402;16.678;2023-10-08T07:21:31;4.30;;;1.40;;
19343;SDS011;9808;52.402;16.678;2023-10-08T07:24:25;5.37;;;1.30;;
19343;SDS011;9808;52.402;16.678;2023-10-08T07:26:52;1.37;;;0.60;;
19343;SDS011;9808;52.402;16.678;2023-10-08T07:29:22;3.50;;;0.80;;
19343;SDS011;9808;52.402;16.678;2023-10-08T07:31:51;4.17;;;1.00;;
19343;SDS011;9808;52.402;16.678;2023-10-08T07:34:19;1.47;;;0.60;;
19343;SDS011;9808;52.402;16.678;2023-10-08T07:36:49;2.13;;;0.53;;
19343;SDS011;9808;52.402;16.678;2023-10-08T07:39:18;2.93;;;1.07;;
19343;SDS011;9808;52.402;16.678;2023-10-08T07:41:49;1.60;;;0.70;;
19343;SDS011;9808;52.402;16.678;2023-10-08T07:44:16;4.87;;;1.00;;
19343;SDS011;9808;52.402;16.678;2023-10-08T07:46:51;1.63;;;0.53;;
19343;SDS011;9808;52.402;16.678;2023-10-08T07:49:21;3.40;;;0.70;;
19343;SDS011;9808;52.402;16.678;2023-10-08T07:51:57;1.70;;;0.57;;
19343;SDS011;9808;52.402;16.678;2023-10-08T07:54:26;3.10;;;0.80;;
19343;SDS011;9808;52.402;16.678;2023-10-08T07:57:01;1.97;;;0.53;;
19343;SDS011;9808;52.402;16.678;2023-10-08T07:59:52;4.17;;;0.87;;
19343;SDS011;9808;52.402;16.678;2023-10-08T08:02:28;1.23;;;0.57;;
19343;SDS011;9808;52.402;16.678;2023-10-08T08:04:56;1.80;;;0.60;;
19343;SDS011;9808;52.402;16.678;2023-10-08T08:07:24;3.20;;;0.93;;
19343;SDS011;9808;52.402;16.678;2023-10-08T08:09:52;2.03;;;0.67;;
19343;SDS011;9808;52.402;16.678;2023-10-08T08:12:27;1.83;;;0.50;;
19343;SDS011;9808;52.402;16.678;2023-10-08T08:14:55;2.07;;;0.50;;
19343;SDS011;9808;52.402;16.678;2023-10-08T08:17:22;1.13;;;0.57;;
19343;SDS011;9808;52.402;16.678;2023-10-08T08:19:51;1.93;;;0.50;;
19343;SDS011;9808;52.402;16.678;2023-10-08T08:22:19;3.00;;;0.60;;
19343;SDS011;9808;52.402;16.678;2023-10-08T08:24:50;1.93;;;0.50;;
19343;SDS011;9808;52.402;16.678;2023-10-08T08:27:47;3.63;;;0.73;;
19343;SDS011;9808;52.402;16.678;2023-10-08T08:30:15;2.07;;;0.43;;
19343;SDS011;9808;52.402;16.678;2023-10-08T08:32:44;1.10;;;0.40;;
19343;SDS011;9808;52.402;16.678;2023-10-08T08:35:18;1.73;;;0.53;;
19343;SDS011;9808;52.402;16.678;2023-10-08T08:37:46;1.80;;;0.63;;
19343;SDS011;9808;52.402;16.678;2023-10-08T08:40:18;2.53;;;0.50;;
19343;SDS011;9808;52.402;16.678;2023-10-08T08:42:46;2.30;;;0.60;;
19343;SDS011;9808;52.402;16.678;2023-10-08T08:45:16;3.33;;;0.70;;
19343;SDS011;9808;52.402;16.678;2023-10-08T08:47:46;1.53;;;0.40;;
19343;SDS011;9808;52.402;16.678;2023-10-08T08:50:14;2.77;;;0.67;;
19343;SDS011;9808;52.402;16.678;2023-10-08T08:52:42;2.50;;;0.47;;
19343;SDS011;9808;52.402;16.678;2023-10-08T08:55:12;2.90;;;0.67;;
19343;SDS011;9808;52.402;16.678;2023-10-08T08:57:49;1.03;;;0.50;;
19343;SDS011;9808;52.402;16.678;2023-10-08T09:00:18;4.57;;;0.60;;
19343;SDS011;9808;52.402;16.678;2023-10-08T09:02:46;1.80;;;0.50;;
19343;SDS011;9808;52.402;16.678;2023-10-08T09:05:15;3.17;;;0.57;;
19343;SDS011;9808;52.402;16.678;2023-10-08T09:10:22;1.33;;;0.63;;
19343;SDS011;9808;52.402;16.678;2023-10-08T09:12:56;1.77;;;0.50;;
19343;SDS011;9808;52.402;16.678;2023-10-08T09:15:26;1.97;;;0.50;;
19343;SDS011;9808;52.402;16.678;2023-10-08T09:17:56;1.97;;;0.43;;
19343;SDS011;9808;52.402;16.678;2023-10-08T09:20:27;1.43;;;0.63;;
19343;SDS011;9808;52.402;16.678;2023-10-08T09:23:07;0.70;;;0.43;;
19343;SDS011;9808;52.402;16.678;2023-10-08T09:25:42;1.17;;;0.47;;
19343;SDS011;9808;52.402;16.678;2023-10-08T09:28:09;1.00;;;0.40;;
19343;SDS011;9808;52.402;16.678;2023-10-08T09:30:40;1.13;;;0.50;;
19343;SDS011;9808;52.402;16.678;2023-10-08T09:33:08;2.97;;;0.57;;
19343;SDS011;9808;52.402;16.678;2023-10-08T09:35:36;1.67;;;0.47;;
19343;SDS011;9808;52.402;16.678;2023-10-08T09:38:06;2.67;;;0.70;;
19343;SDS011;9808;52.402;16.678;2023-10-08T09:40:39;2.40;;;0.70;;
19343;SDS011;9808;52.402;16.678;2023-10-08T09:43:10;1.27;;;0.40;;
19343;SDS011;9808;52.402;16.678;2023-10-08T09:45:38;1.23;;;0.40;;
19343;SDS011;9808;52.402;16.678;2023-10-08T09:48:09;0.77;;;0.40;;
19343;SDS011;9808;52.402;16.678;2023-10-08T09:50:41;2.43;;;0.70;;
19343;SDS011;9808;52.402;16.678;2023-10-08T09:55:50;1.73;;;0.53;;
19343;SDS011;9808;52.402;16.678;2023-10-08T09:58:20;1.03;;;0.40;;
19343;SDS011;9808;52.402;16.678;2023-10-08T10:00:52;2.50;;;0.60;;
19343;SDS011;9808;52.402;16.678;2023-10-08T10:03:23;2.03;;;0.60;;
19343;SDS011;9808;52.402;16.678;2023-10-08T10:05:52;2.47;;;0.60;;
19343;SDS011;9808;52.402;16.678;2023-10-08T10:08:25;2.40;;;0.53;;
19343;SDS011;9808;52.402;16.678;2023-10-08T10:10:58;3.57;;;0.73;;
19343;SDS011;9808;52.402;16.678;2023-10-08T10:13:29;1.37;;;0.63;;
19343;SDS011;9808;52.402;16.678;2023-10-08T10:16:00;1.03;;;0.40;;
19343;SDS011;9808;52.402;16.678;2023-10-08T10:18:28;5.03;;;0.40;;
19343;SDS011;9808;52.402;16.678;2023-10-08T10:21:00;4.53;;;0.73;;
19343;SDS011;9808;52.402;16.678;2023-10-08T10:26:03;1.43;;;0.70;;
19343;SDS011;9808;52.402;16.678;2023-10-08T10:28:30;2.37;;;0.70;;
19343;SDS011;9808;52.402;16.678;2023-10-08T10:30:59;1.87;;;0.70;;
19343;SDS011;9808;52.402;16.678;2023-10-08T10:33:30;2.00;;;0.60;;
19343;SDS011;9808;52.402;16.678;2023-10-08T10:36:00;2.00;;;0.80;;
19343;SDS011;9808;52.402;16.678;2023-10-08T10:38:31;4.90;;;0.50;;
19343;SDS011;9808;52.402;16.678;2023-10-08T10:41:03;0.80;;;0.43;;
19343;SDS011;9808;52.402;16.678;2023-10-08T10:43:35;0.63;;;0.40;;
19343;SDS011;9808;52.402;16.678;2023-10-08T10:46:06;2.00;;;0.47;;
19343;SDS011;9808;52.402;16.678;2023-10-08T10:48:52;2.40;;;0.30;;
19343;SDS011;9808;52.402;16.678;2023-10-08T10:51:52;3.73;;;0.40;;
19343;SDS011;9808;52.402;16.678;2023-10-08T10:54:24;1.27;;;0.50;;
19343;SDS011;9808;52.402;16.678;2023-10-08T10:56:52;1.47;;;0.60;;
19343;SDS011;9808;52.402;16.678;2023-10-08T10:59:43;1.50;;;0.43;;
19343;SDS011;9808;52.402;16.678;2023-10-08T11:02:19;2.13;;;0.60;;
19343;SDS011;9808;52.402;16.678;2023-10-08T11:04:59;0.83;;;0.30;;
19343;SDS011;9808;52.402;16.678;2023-10-08T11:07:34;2.97;;;0.50;;
19343;SDS011;9808;52.402;16.678;2023-10-08T11:10:04;3.43;;;0.60;;
19343;SDS011;9808;52.402;16.678;2023-10-08T11:12:36;1.40;;;0.40;;
19343;SDS011;9808;52.402;16.678;2023-10-08T11:15:18;1.03;;;0.40;;
19343;SDS011;9808;52.402;16.678;2023-10-08T11:17:49;3.30;;;0.67;;
19343;SDS011;9808;52.402;16.678;2023-10-08T11:20:22;1.30;;;0.40;;
19343;SDS011;9808;52.402;16.678;2023-10-08T11:22:50;1.20;;;0.50;;
19343;SDS011;9808;52.402;16.678;2023-10-08T11:25:23;1.80;;;0.50;;
19343;SDS011;9808;52.402;16.678;2023-10-08T11:27:57;1.77;;;0.60;;
19343;SDS011;9808;52.402;16.678;2023-10-08T11:30:35;0.70;;;0.40;;
19343;SDS011;9808;52.402;16.678;2023-10-08T11:33:04;1.13;;;0.57;;
19343;SDS011;9808;52.402;16.678;2023-10-08T11:35:33;1.37;;;0.47;;
19343;SDS011;9808;52.402;16.678;2023-10-08T11:38:00;2.00;;;0.50;;
19343;SDS011;9808;52.402;16.678;2023-10-08T11:40:29;1.33;;;0.50;;
19343;SDS011;9808;52.402;16.678;2023-10-08T11:43:15;0.53;;;0.23;;
19343;SDS011;9808;52.402;16.678;2023-10-08T11:45:43;0.67;;;0.40;;
19343;SDS011;9808;52.402;16.678;2023-10-08T11:48:14;0.43;;;0.40;;
19343;SDS011;9808;52.402;16.678;2023-10-08T11:50:48;1.20;;;0.40;;
19343;SDS011;9808;52.402;16.678;2023-10-08T11:53:17;0.87;;;0.30;;
19343;SDS011;9808;52.402;16.678;2023-10-08T11:55:47;1.30;;;0.30;;
19343;SDS011;9808;52.402;16.678;2023-10-08T11:58:15;0.50;;;0.40;;
19343;SDS011;9808;52.402;16.678;2023-10-08T12:00:46;1.27;;;0.40;;
19343;SDS011;9808;52.402;16.678;2023-10-08T12:03:19;2.07;;;0.80;;
19343;SDS011;9808;52.402;16.678;2023-10-08T12:05:47;2.00;;;0.60;;
19343;SDS011;9808;52.402;16.678;2023-10-08T12:08:18;2.93;;;0.90;;
19343;SDS011;9808;52.402;16.678;2023-10-08T12:10:49;0.77;;;0.50;;
19343;SDS011;9808;52.402;16.678;2023-10-08T12:13:21;0.93;;;0.47;;
19343;SDS011;9808;52.402;16.678;2023-10-08T12:15:55;1.27;;;0.60;;
19343;SDS011;9808;52.402;16.678;2023-10-08T12:18:33;3.00;;;0.77;;
19343;SDS011;9808;52.402;16.678;2023-10-08T12:21:07;2.47;;;0.60;;
19343;SDS011;9808;52.402;16.678;2023-10-08T12:23:38;1.00;;;0.43;;
19343;SDS011;9808;52.402;16.678;2023-10-08T12:26:05;1.80;;;0.47;;
19343;SDS011;9808;52.402;16.678;2023-10-08T12:28:34;1.67;;;0.60;;
19343;SDS011;9808;52.402;16.678;2023-10-08T12:31:02;2.03;;;0.50;;
19343;SDS011;9808;52.402;16.678;2023-10-08T12:33:30;1.20;;;0.50;;
19343;SDS011;9808;52.402;16.678;2023-10-08T12:35:58;2.13;;;0.50;;
19343;SDS011;9808;52.402;16.678;2023-10-08T12:38:38;1.83;;;0.60;;
19343;SDS011;9808;52.402;16.678;2023-10-08T12:41:11;2.63;;;0.60;;
19343;SDS011;9808;52.402;16.678;2023-10-08T12:43:39;4.77;;;0.70;;
19343;SDS011;9808;52.402;16.678;2023-10-08T12:46:12;1.70;;;0.73;;
19343;SDS011;9808;52.402;16.678;2023-10-08T12:48:51;2.17;;;0.80;;
19343;SDS011;9808;52.402;16.678;2023-10-08T12:51:20;2.43;;;0.90;;
19343;SDS011;9808;52.402;16.678;2023-10-08T12:53:52;2.93;;;1.47;;
19343;SDS011;9808;52.402;16.678;2023-10-08T12:56:40;3.17;;;1.20;;
19343;SDS011;9808;52.402;16.678;2023-10-08T12:59:21;3.17;;;0.97;;
19343;SDS011;9808;52.402;16.678;2023-10-08T13:01:50;1.97;;;0.70;;
19343;SDS011;9808;52.402;16.678;2023-10-08T13:04:21;1.90;;;0.60;;
19343;SDS011;9808;52.402;16.678;2023-10-08T13:06:55;5.20;;;0.53;;
19343;SDS011;9808;52.402;16.678;2023-10-08T13:09:24;1.80;;;0.70;;
19343;SDS011;9808;52.402;16.678;2023-10-08T13:11:51;1.50;;;0.70;;
19343;SDS011;9808;52.402;16.678;2023-10-08T13:14:19;2.57;;;1.20;;
19343;SDS011;9808;52.402;16.678;2023-10-08T13:16:49;1.97;;;0.70;;
19343;SDS011;9808;52.402;16.678;2023-10-08T13:19:20;1.43;;;0.73;;
19343;SDS011;9808;52.402;16.678;2023-10-08T13:21:50;3.13;;;0.90;;
19343;SDS011;9808;52.402;16.678;2023-10-08T13:24:19;1.93;;;0.60;;
19343;SDS011;9808;52.402;16.678;2023-10-08T13:26:50;1.63;;;0.50;;
19343;SDS011;9808;52.402;16.678;2023-10-08T13:29:18;2.17;;;0.70;;
19343;SDS011;9808;52.402;16.678;2023-10-08T13:31:45;1.40;;;0.50;;
19343;SDS011;9808;52.402;16.678;2023-10-08T13:34:13;1.33;;;0.50;;
19343;SDS011;9808;52.402;16.678;2023-10-08T13:36:42;1.47;;;0.60;;
19343;SDS011;9808;52.402;16.678;2023-10-08T13:39:13;2.20;;;0.67;;
19343;SDS011;9808;52.402;16.678;2023-10-08T13:41:45;4.77;;;1.13;;
19343;SDS011;9808;52.402;16.678;2023-10-08T13:44:16;4.73;;;0.70;;
19343;SDS011;9808;52.402;16.678;2023-10-08T13:46:45;2.83;;;0.90;;
19343;SDS011;9808;52.402;16.678;2023-10-08T13:49:16;1.90;;;0.73;;
19343;SDS011;9808;52.402;16.678;2023-10-08T13:51:49;4.20;;;1.33;;
19343;SDS011;9808;52.402;16.678;2023-10-08T13:54:24;1.37;;;0.70;;
19343;SDS011;9808;52.402;16.678;2023-10-08T13:57:05;3.23;;;1.40;;
19343;SDS011;9808;52.402;16.678;2023-10-08T13:59:35;8.83;;;4.13;;
19343;SDS011;9808;52.402;16.678;2023-10-08T14:02:04;7.27;;;3.10;;
19343;SDS011;9808;52.402;16.678;2023-10-08T14:04:44;3.50;;;1.67;;
19343;SDS011;9808;52.402;16.678;2023-10-08T14:07:11;2.47;;;1.30;;
19343;SDS011;9808;52.402;16.678;2023-10-08T14:09:43;3.07;;;1.30;;
19343;SDS011;9808;52.402;16.678;2023-10-08T14:12:12;7.80;;;2.23;;
19343;SDS011;9808;52.402;16.678;2023-10-08T14:14:42;4.03;;;1.40;;
19343;SDS011;9808;52.402;16.678;2023-10-08T14:17:10;4.40;;;2.33;;
19343;SDS011;9808;52.402;16.678;2023-10-08T14:19:42;6.07;;;3.13;;
19343;SDS011;9808;52.402;16.678;2023-10-08T14:22:13;3.33;;;1.20;;
19343;SDS011;9808;52.402;16.678;2023-10-08T14:24:42;2.17;;;0.90;;
19343;SDS011;9808;52.402;16.678;2023-10-08T14:27:12;4.23;;;1.20;;
19343;SDS011;9808;52.402;16.678;2023-10-08T14:29:42;5.90;;;2.07;;
19343;SDS011;9808;52.402;16.678;2023-10-08T14:32:11;7.67;;;2.37;;
19343;SDS011;9808;52.402;16.678;2023-10-08T14:34:38;5.67;;;2.60;;
19343;SDS011;9808;52.402;16.678;2023-10-08T14:37:21;6.63;;;3.20;;
19343;SDS011;9808;52.402;16.678;2023-10-08T14:40:08;9.23;;;4.83;;
19343;SDS011;9808;52.402;16.678;2023-10-08T14:42:54;6.07;;;2.80;;
19343;SDS011;9808;52.402;16.678;2023-10-08T14:45:26;4.27;;;1.50;;
19343;SDS011;9808;52.402;16.678;2023-10-08T14:47:54;6.07;;;1.90;;
19343;SDS011;9808;52.402;16.678;2023-10-08T14:50:22;6.60;;;2.97;;
19343;SDS011;9808;52.402;16.678;2023-10-08T14:52:50;9.30;;;3.70;;
19343;SDS011;9808;52.402;16.678;2023-10-08T14:55:17;7.30;;;2.73;;
19343;SDS011;9808;52.402;16.678;2023-10-08T14:57:50;6.73;;;2.30;;
19343;SDS011;9808;52.402;16.678;2023-10-08T15:00:21;3.93;;;1.77;;
19343;SDS011;9808;52.402;16.678;2023-10-08T15:02:54;4.10;;;1.70;;
19343;SDS011;9808;52.402;16.678;2023-10-08T15:05:22;6.67;;;2.30;;
19343;SDS011;9808;52.402;16.678;2023-10-08T15:07:50;6.03;;;2.23;;
19343;SDS011;9808;52.402;16.678;2023-10-08T15:10:18;4.40;;;1.60;;
19343;SDS011;9808;52.402;16.678;2023-10-08T15:12:45;6.73;;;2.63;;
19343;SDS011;9808;52.402;16.678;2023-10-08T15:15:17;8.90;;;1.50;;
19343;SDS011;9808;52.402;16.678;2023-10-08T15:17:45;4.63;;;1.53;;
19343;SDS011;9808;52.402;16.678;2023-10-08T15:20:14;5.50;;;2.23;;
19343;SDS011;9808;52.402;16.678;2023-10-08T15:22:43;7.00;;;1.90;;
19343;SDS011;9808;52.402;16.678;2023-10-08T15:25:11;3.83;;;1.70;;
19343;SDS011;9808;52.402;16.678;2023-10-08T15:27:39;3.00;;;1.33;;
19343;SDS011;9808;52.402;16.678;2023-10-08T15:30:08;5.50;;;2.27;;
19343;SDS011;9808;52.402;16.678;2023-10-08T15:32:39;5.30;;;2.00;;
19343;SDS011;9808;52.402;16.678;2023-10-08T15:35:07;5.73;;;2.37;;
19343;SDS011;9808;52.402;16.678;2023-10-08T15:37:36;5.57;;;1.93;;
19343;SDS011;9808;52.402;16.678;2023-10-08T15:40:04;3.07;;;1.00;;
19343;SDS011;9808;52.402;16.678;2023-10-08T15:42:33;5.27;;;0.90;;